Time;durP1;ratioP1;P1;durP2;ratioP2;P2;SDS_P1;SDS_P2;PMS_P1;PMS_P2;Temp;Humidity;BMP_temperature;BMP_pressure;BME280_temperature;BME280_humidity;BME280_pressure;Samples;Min_cycle;Max_cycle;Signal;HPM_P1;HPM_P2
2022/07/01 00:01:19;;;;;;;;;;;22.70;58.40;;;;;;6217024;23;19908;-90
2022/07/01 00:03:51;;;;;;;;;;;22.60;59.10;;;;;;6217939;23;19912;-90
2022/07/01 00:06:17;;;;;;;;;;;22.60;59.80;;;;;;6190754;23;19915;-90
2022/07/01 00:08:42;;;;;;;;;;;22.50;60.10;;;;;;6218104;23;20309;-90
2022/07/01 00:11:08;;;;;;;;;;;22.50;60.60;;;;;;6216320;23;19911;-89
2022/07/01 00:13:33;;;;;;;;;;;22.40;61.10;;;;;;6217540;23;19962;-89
2022/07/01 00:15:59;;;;;;;;;;;22.40;61.30;;;;;;6190126;23;19911;-90
2022/07/01 00:18:24;;;;;;;;;;;22.40;61.60;;;;;;6216405;23;19939;-89
2022/07/01 00:20:50;;;;;;;;;;;22.30;61.80;;;;;;6216817;23;20525;-89
2022/07/01 00:23:16;;;;;;;;;;;22.30;62.10;;;;;;6189431;23;19911;-90
2022/07/01 00:25:42;;;;;;;;;;;22.30;61.90;;;;;;6190085;23;19908;-90
2022/07/01 00:28:08;;;;;;;;;;;22.20;62.20;;;;;;6217024;23;19908;-90
2022/07/01 00:30:33;;;;;;;;;;;22.20;62.30;;;;;;6190576;23;19908;-89
2022/07/01 00:32:59;;;;;;;;;;;22.20;62.40;;;;;;6190502;23;19908;-89
2022/07/01 00:35:24;;;;;;;;;;;22.30;62.70;;;;;;6190306;23;19931;-90
2022/07/01 00:37:50;;;;;;;;;;;22.30;62.70;;;;;;6215339;23;19916;-89
2022/07/01 00:40:19;;;;;;;;;;;22.30;62.90;;;;;;6215348;23;19908;-90
2022/07/01 00:42:44;;;;;;;;;;;22.30;62.80;;;;;;6189904;23;19912;-90
2022/07/01 00:45:10;;;;;;;;;;;22.30;62.70;;;;;;6216786;23;19983;-90
2022/07/01 00:47:36;;;;;;;;;;;22.30;62.90;;;;;;6189243;23;19919;-90
2022/07/01 00:50:03;;;;;;;;;;;22.40;62.90;;;;;;6214863;23;19961;-91
2022/07/01 00:52:28;;;;;;;;;;;22.40;62.80;;;;;;6189986;23;19916;-90
2022/07/01 00:54:54;;;;;;;;;;;22.40;62.60;;;;;;6190106;23;20218;-90
2022/07/01 00:57:20;;;;;;;;;;;22.40;62.50;;;;;;6215883;23;19919;-91
2022/07/01 00:59:46;;;;;;;;;;;22.30;62.50;;;;;;6217167;23;19912;-90
2022/07/01 01:02:11;;;;;;;;;;;22.30;62.50;;;;;;6217884;23;20039;-90
2022/07/01 01:04:37;;;;;;;;;;;22.30;62.60;;;;;;6190132;23;20351;-90
2022/07/01 01:07:03;;;;;;;;;;;22.30;62.30;;;;;;6190078;23;20310;-90
2022/07/01 01:09:30;;;;;;;;;;;22.30;62.50;;;;;;6189790;23;19908;-91
2022/07/01 01:11:55;;;;;;;;;;;22.30;62.30;;;;;;6190088;23;19993;-91
2022/07/01 01:14:21;;;;;;;;;;;22.20;62.40;;;;;;6190119;23;20313;-90
2022/07/01 01:16:47;;;;;;;;;;;22.20;62.50;;;;;;6216201;23;19920;-91
2022/07/01 01:19:13;;;;;;;;;;;22.10;62.60;;;;;;6217252;23;19911;-91
2022/07/01 01:21:38;;;;;;;;;;;22.20;62.60;;;;;;6189411;23;19995;-90
2022/07/01 01:24:04;;;;;;;;;;;22.10;62.80;;;;;;6216838;23;19908;-91
2022/07/01 01:26:30;;;;;;;;;;;22.10;62.60;;;;;;6189753;23;19908;-90
2022/07/01 01:28:55;;;;;;;;;;;22.00;62.40;;;;;;6190202;23;19962;-90
2022/07/01 01:31:33;;;;;;;;;;;22.00;62.60;;;;;;6190799;23;19923;-90
2022/07/01 01:33:58;;;;;;;;;;;22.10;62.70;;;;;;6217742;23;20324;-90
2022/07/01 01:36:24;;;;;;;;;;;22.00;62.60;;;;;;6190411;23;19911;-91
2022/07/01 01:38:49;;;;;;;;;;;22.00;62.70;;;;;;6189178;23;19916;-91
2022/07/01 01:41:15;;;;;;;;;;;22.00;62.80;;;;;;6231378;23;19915;-90
2022/07/01 01:43:40;;;;;;;;;;;22.00;62.70;;;;;;6247813;23;20332;-90
2022/07/01 01:46:06;;;;;;;;;;;22.00;62.70;;;;;;6220762;23;20262;-91
2022/07/01 01:48:31;;;;;;;;;;;22.00;62.60;;;;;;6247499;23;19989;-90
2022/07/01 01:50:57;;;;;;;;;;;21.90;62.60;;;;;;6247478;23;19912;-90
2022/07/01 01:53:22;;;;;;;;;;;21.90;62.50;;;;;;6245877;23;20029;-90
2022/07/01 01:56:13;;;;;;;;;;;21.80;62.40;;;;;;6247221;23;20273;-90
2022/07/01 01:58:42;;;;;;;;;;;21.80;62.30;;;;;;6219994;23;20351;-91
2022/07/01 02:01:12;;;;;;;;;;;21.80;62.60;;;;;;6247210;23;19962;-90
2022/07/01 02:03:38;;;;;;;;;;;21.80;62.70;;;;;;6220469;23;19908;-91
2022/07/01 02:06:04;;;;;;;;;;;21.80;62.60;;;;;;6246898;23;19908;-91
2022/07/01 02:08:29;;;;;;;;;;;21.80;62.60;;;;;;6247290;23;19914;-89
2022/07/01 02:42:59;;;;;;;;;;;21.70;62.80;;;;;;6265804;22;19915;-90
2022/07/01 03:25:25;;;;;;;;;;;21.20;63.60;;;;;;6308425;22;19922;-91
2022/07/01 03:31:18;;;;;;;;;;;21.10;64.00;;;;;;6186680;22;19911;-91
2022/07/01 03:51:44;;;;;;;;;;;21.20;64.60;;;;;;6294488;22;19945;-91
2022/07/01 04:25:07;;;;;;;;;;;;;;;;;;;;;
2022/07/01 04:28:01;;;;;;;;;;;21.10;65.20;;;;;;6181481;23;20302;-89
2022/07/01 04:39:25;;;;;;;;;;;;;;;;;;;;;
2022/07/01 04:45:10;;;;;;;;;;;21.30;65.00;;;;;;6155627;23;19912;-90
2022/07/01 04:57:13;;;;;;;;;;;21.80;64.80;;;;;;6170248;22;19926;-90
2022/07/01 04:59:38;;;;;;;;;;;21.80;64.80;;;;;;6225275;22;20234;-89
2022/07/01 05:02:04;;;;;;;;;;;21.90;64.80;;;;;;6249722;22;19934;-90
2022/07/01 05:04:29;;;;;;;;;;;22.00;64.60;;;;;;6252035;22;20347;-89
2022/07/01 05:06:55;;;;;;;;;;;22.00;64.40;;;;;;6251212;22;19918;-89
2022/07/01 05:09:21;;;;;;;;;;;22.10;64.50;;;;;;6252203;22;20320;-89
2022/07/01 05:11:46;;;;;;;;;;;22.20;64.20;;;;;;6278423;22;19918;-91
2022/07/01 05:14:11;;;;;;;;;;;22.20;64.10;;;;;;6251079;22;19961;-90
2022/07/01 05:16:37;;;;;;;;;;;22.20;63.90;;;;;;6277971;22;19911;-89
2022/07/01 05:21:56;;;;;;;;;;;22.20;63.80;;;;;;6278380;22;19915;-91
2022/07/01 05:24:23;;;;;;;;;;;22.20;63.80;;;;;;6252305;22;19911;-90
2022/07/01 05:26:48;;;;;;;;;;;22.20;64.00;;;;;;6279013;22;19907;-91
2022/07/01 05:29:15;;;;;;;;;;;22.20;63.90;;;;;;6252021;22;19934;-89
2022/07/01 05:31:41;;;;;;;;;;;22.20;63.60;;;;;;6250635;22;20205;-91
2022/07/01 05:34:07;;;;;;;;;;;22.30;63.60;;;;;;6250764;22;19911;-92
2022/07/01 05:36:33;;;;;;;;;;;22.30;63.60;;;;;;6250025;22;20362;-91
2022/07/01 05:38:59;;;;;;;;;;;22.30;63.50;;;;;;6250744;22;19935;-92
2022/07/01 05:41:25;;;;;;;;;;;22.30;63.60;;;;;;6249585;22;19914;-90
2022/07/01 05:43:50;;;;;;;;;;;22.20;63.80;;;;;;6250901;22;19911;-90
2022/07/01 05:46:16;;;;;;;;;;;22.30;63.50;;;;;;6250086;22;19907;-91
2022/07/01 05:48:41;;;;;;;;;;;22.30;63.50;;;;;;6250371;22;19982;-91
2022/07/01 05:51:07;;;;;;;;;;;22.30;63.60;;;;;;6249660;22;19938;-90
2022/07/01 05:53:32;;;;;;;;;;;22.30;63.70;;;;;;6249669;22;19907;-90
2022/07/01 05:55:58;;;;;;;;;;;22.30;63.50;;;;;;6276762;22;19939;-90
2022/07/01 05:58:23;;;;;;;;;;;22.30;63.20;;;;;;6250212;22;20335;-90
2022/07/01 06:00:50;;;;;;;;;;;22.40;63.50;;;;;;6278604;22;19907;-90
2022/07/01 06:03:15;;;;;;;;;;;22.40;63.40;;;;;;6252882;22;20308;-92
2022/07/01 06:05:41;;;;;;;;;;;22.40;63.60;;;;;;6250361;22;19926;-91
2022/07/01 06:08:07;;;;;;;;;;;22.40;63.60;;;;;;6249648;22;19903;-91
2022/07/01 06:10:33;;;;;;;;;;;22.50;63.80;;;;;;6277197;22;19907;-91
2022/07/01 06:12:58;;;;;;;;;;;22.50;63.70;;;;;;6277336;22;19904;-91
2022/07/01 06:15:24;;;;;;;;;;;22.60;63.80;;;;;;6277188;22;20339;-90
2022/07/01 06:17:53;;;;;;;;;;;22.60;63.60;;;;;;6250693;22;19911;-90
2022/07/01 06:20:19;;;;;;;;;;;22.60;63.10;;;;;;6250491;22;19918;-90
2022/07/01 06:22:44;;;;;;;;;;;22.70;63.50;;;;;;6250102;22;20316;-91
2022/07/01 06:25:13;;;;;;;;;;;22.70;63.40;;;;;;6250455;22;20308;-91
2022/07/01 06:27:42;;;;;;;;;;;22.70;63.20;;;;;;6249855;22;20244;-90
2022/07/01 06:30:08;;;;;;;;;;;22.80;63.30;;;;;;6277903;22;19911;-91
2022/07/01 06:32:34;;;;;;;;;;;22.90;63.10;;;;;;6224950;22;19912;-91
2022/07/01 06:34:59;;;;;;;;;;;22.90;63.30;;;;;;6249436;22;19918;-91
2022/07/01 06:37:25;;;;;;;;;;;22.90;62.80;;;;;;6277157;22;20000;-90
2022/07/01 06:39:50;;;;;;;;;;;23.00;63.00;;;;;;6251552;22;19911;-91
2022/07/01 06:42:16;;;;;;;;;;;23.10;63.30;;;;;;6249966;22;19942;-92
2022/07/01 06:44:42;;;;;;;;;;;23.20;63.50;;;;;;6249101;22;19912;-91
2022/07/01 06:47:07;;;;;;;;;;;23.20;63.30;;;;;;6250767;22;19910;-90
2022/07/01 06:49:33;;;;;;;;;;;23.30;63.40;;;;;;6250040;22;20323;-91
2022/07/01 06:51:58;;;;;;;;;;;23.30;63.30;;;;;;6276295;22;19903;-90
2022/07/01 06:54:24;;;;;;;;;;;23.40;63.00;;;;;;6249765;22;19998;-91
2022/07/01 06:56:49;;;;;;;;;;;23.40;62.80;;;;;;6249310;22;19931;-91
2022/07/01 06:59:15;;;;;;;;;;;23.50;63.30;;;;;;6249120;22;19918;-91
2022/07/01 07:01:40;;;;;;;;;;;23.60;62.80;;;;;;6249545;22;20366;-91
2022/07/01 07:04:06;;;;;;;;;;;23.70;62.90;;;;;;6249433;22;19907;-90
2022/07/01 07:06:31;;;;;;;;;;;23.80;62.90;;;;;;6249134;22;19907;-91
2022/07/01 07:08:57;;;;;;;;;;;24.00;62.40;;;;;;6249860;22;19908;-91
2022/07/01 07:11:23;;;;;;;;;;;24.10;62.00;;;;;;6249342;22;20306;-91
2022/07/01 07:13:48;;;;;;;;;;;24.20;62.20;;;;;;6249899;22;19907;-91
2022/07/01 07:16:14;;;;;;;;;;;24.20;61.70;;;;;;6249615;22;19911;-91
2022/07/01 07:18:39;;;;;;;;;;;24.30;61.10;;;;;;6276801;22;19916;-91
2022/07/01 07:21:04;;;;;;;;;;;24.30;61.00;;;;;;6276852;22;20274;-91
2022/07/01 07:23:30;;;;;;;;;;;24.30;59.90;;;;;;6249656;22;19904;-90
2022/07/01 07:25:56;;;;;;;;;;;24.30;60.00;;;;;;6250408;22;19911;-91
2022/07/01 07:28:21;;;;;;;;;;;24.40;60.20;;;;;;6249776;22;19904;-91
2022/07/01 07:30:47;;;;;;;;;;;24.50;60.50;;;;;;6250044;22;19919;-92
2022/07/01 07:33:13;;;;;;;;;;;24.60;60.10;;;;;;6250736;22;19960;-91
2022/07/01 07:35:38;;;;;;;;;;;24.70;59.80;;;;;;6250486;22;19912;-92
2022/07/01 07:38:03;;;;;;;;;;;24.80;59.20;;;;;;6249130;22;19919;-91
2022/07/01 07:40:29;;;;;;;;;;;25.00;58.80;;;;;;6276786;22;19961;-91
2022/07/01 07:42:54;;;;;;;;;;;25.20;59.60;;;;;;6250321;22;20307;-92
2022/07/01 07:45:20;;;;;;;;;;;25.40;59.20;;;;;;6249022;22;19922;-91
2022/07/01 07:47:48;;;;;;;;;;;25.60;58.30;;;;;;6249227;22;19908;-92
2022/07/01 07:50:16;;;;;;;;;;;25.80;57.90;;;;;;6276060;22;19938;-92
2022/07/01 07:52:42;;;;;;;;;;;25.90;58.70;;;;;;6248651;22;19946;-91
2022/07/01 07:55:08;;;;;;;;;;;26.10;57.70;;;;;;6249295;22;19903;-91
2022/07/01 07:57:35;;;;;;;;;;;26.20;56.80;;;;;;6248593;22;19926;-91
2022/07/01 08:00:01;;;;;;;;;;;26.30;56.70;;;;;;6249274;22;19907;-90
2022/07/01 08:02:27;;;;;;;;;;;26.50;55.70;;;;;;6249616;22;19919;-94
2022/07/01 08:04:53;;;;;;;;;;;26.70;55.80;;;;;;6249473;22;19982;-91
2022/07/01 08:07:18;;;;;;;;;;;26.90;55.80;;;;;;6275900;22;19954;-90
2022/07/01 08:09:47;;;;;;;;;;;27.00;55.40;;;;;;6249799;22;19914;-92
2022/07/01 08:12:13;;;;;;;;;;;27.00;54.50;;;;;;6246946;22;20293;-91
2022/07/01 08:14:38;;;;;;;;;;;26.80;54.20;;;;;;6276738;22;19908;-91
2022/07/01 08:17:18;;;;;;;;;;;26.80;53.30;;;;;;6249333;22;19955;-91
2022/07/01 08:19:44;;;;;;;;;;;26.80;51.80;;;;;;6250692;22;19911;-91
2022/07/01 08:22:16;;;;;;;;;;;26.80;52.50;;;;;;6278031;22;20331;-90
2022/07/01 08:24:43;;;;;;;;;;;26.90;53.10;;;;;;6251393;22;20347;-91
2022/07/01 08:27:09;;;;;;;;;;;27.00;53.30;;;;;;6250421;22;19994;-90
2022/07/01 08:29:34;;;;;;;;;;;27.00;53.30;;;;;;6249879;22;19943;-91
2022/07/01 08:32:13;;;;;;;;;;;27.00;52.40;;;;;;6249381;22;20006;-91
2022/07/01 08:44:16;;;;;;;;;;;26.70;51.90;;;;;;6172045;23;20303;-91
2022/07/01 08:46:42;;;;;;;;;;;26.70;52.10;;;;;;6265633;22;19903;-92
2022/07/01 08:49:08;;;;;;;;;;;26.70;51.30;;;;;;6276073;22;20303;-90
2022/07/01 08:51:34;;;;;;;;;;;26.60;49.90;;;;;;6281313;22;20239;-91
2022/07/01 08:54:12;;;;;;;;;;;26.60;50.60;;;;;;6280753;22;19903;-91
2022/07/01 08:56:57;;;;;;;;;;;26.50;51.10;;;;;;6281433;22;19918;-91
2022/07/01 08:59:32;;;;;;;;;;;26.60;50.90;;;;;;6280240;22;19930;-91
2022/07/01 09:02:01;;;;;;;;;;;26.60;51.10;;;;;;6281387;22;19907;-89
2022/07/01 09:12:55;;;;;;;;;;;26.50;50.00;;;;;;6311529;22;20339;-91
2022/07/01 09:18:20;;;;;;;;;;;26.50;49.50;;;;;;6285903;22;19926;-90
2022/07/01 09:21:01;;;;;;;;;;;;;;;;;;;;;
2022/07/01 09:23:56;;;;;;;;;;;27.00;49.30;;;;;;6307640;22;19981;-91
2022/07/01 09:26:39;;;;;;;;;;;27.20;49.90;;;;;;6266651;22;19918;-90
2022/07/01 09:29:18;;;;;;;;;;;27.50;48.90;;;;;;6278939;22;19911;-91
2022/07/01 09:35:53;;;;;;;;;;;27.80;47.40;;;;;;6303406;22;19921;-90
2022/07/01 09:41:40;;;;;;;;;;;28.40;46.50;;;;;;6302253;22;19965;-91
2022/07/01 09:50:22;;;;;;;;;;;29.40;45.10;;;;;;6181226;22;20244;-91
2022/07/01 09:52:47;;;;;;;;;;;29.90;45.00;;;;;;6282393;22;19903;-91
2022/07/01 09:55:13;;;;;;;;;;;30.40;43.60;;;;;;6282910;22;19914;-91
2022/07/01 09:57:40;;;;;;;;;;;30.70;43.60;;;;;;6282633;22;19911;-91
2022/07/01 10:00:06;;;;;;;;;;;31.20;42.40;;;;;;6283173;22;19972;-90
2022/07/01 10:02:34;;;;;;;;;;;31.60;41.90;;;;;;6283136;22;19902;-92
2022/07/01 10:05:06;;;;;;;;;;;32.10;40.90;;;;;;6282816;22;19911;-92
2022/07/01 10:07:38;;;;;;;;;;;32.40;39.10;;;;;;6282317;22;19982;-92
2022/07/01 10:10:11;;;;;;;;;;;32.70;38.10;;;;;;6283111;22;19918;-90
2022/07/01 10:12:46;;;;;;;;;;;33.00;37.70;;;;;;6282366;22;19945;-90
2022/07/01 10:15:14;;;;;;;;;;;33.20;37.10;;;;;;6310702;22;19907;-91
2022/07/01 10:17:44;;;;;;;;;;;33.40;35.80;;;;;;6282466;22;19937;-91
2022/07/01 10:20:13;;;;;;;;;;;33.50;35.30;;;;;;6310521;22;20338;-91
2022/07/01 10:22:39;;;;;;;;;;;33.80;35.60;;;;;;6310707;22;19907;-90
2022/07/01 10:25:23;;;;;;;;;;;34.30;35.00;;;;;;6282232;22;19910;-91
2022/07/01 10:28:08;;;;;;;;;;;34.70;34.20;;;;;;6281618;22;19907;-91
2022/07/01 10:30:47;;;;;;;;;;;35.10;32.90;;;;;;6310366;22;19922;-90
2022/07/01 10:33:25;;;;;;;;;;;35.20;32.10;;;;;;6282340;22;19953;-90
2022/07/01 10:35:51;;;;;;;;;;;35.20;31.80;;;;;;6282487;22;19911;-90
2022/07/01 10:38:17;;;;;;;;;;;35.20;30.60;;;;;;6281006;22;19921;-91
2022/07/01 10:40:48;;;;;;;;;;;35.20;30.60;;;;;;6282823;22;19918;-90
2022/07/01 10:43:31;;;;;;;;;;;35.30;30.30;;;;;;6281697;22;20641;-91
2022/07/01 10:45:56;;;;;;;;;;;35.30;28.70;;;;;;6282306;22;19911;-91
2022/07/01 10:48:25;;;;;;;;;;;35.40;29.20;;;;;;6282657;22;19911;-92
2022/07/01 10:50:52;;;;;;;;;;;35.70;28.80;;;;;;6281710;22;19907;-90
2022/07/01 10:53:18;;;;;;;;;;;35.90;28.50;;;;;;6310333;22;19932;-90
2022/07/01 10:55:45;;;;;;;;;;;36.20;27.90;;;;;;6282277;22;19911;-90
2022/07/01 10:58:11;;;;;;;;;;;36.30;27.40;;;;;;6309806;22;19918;-91
2022/07/01 11:00:41;;;;;;;;;;;36.30;27.30;;;;;;6309990;22;19911;-92
2022/07/01 11:03:14;;;;;;;;;;;36.50;27.70;;;;;;6282310;22;19911;-90
2022/07/01 11:05:49;;;;;;;;;;;36.50;26.90;;;;;;6282960;22;19956;-90
2022/07/01 11:08:24;;;;;;;;;;;36.50;27.10;;;;;;6282602;22;20220;-91
2022/07/01 11:11:05;;;;;;;;;;;36.50;26.20;;;;;;6309573;22;19988;-91
2022/07/01 11:13:30;;;;;;;;;;;36.40;26.50;;;;;;6281568;22;19907;-92
2022/07/01 11:16:21;;;;;;;;;;;36.30;25.80;;;;;;6281839;22;19917;-91
2022/07/01 11:19:09;;;;;;;;;;;36.10;25.70;;;;;;6309890;22;19922;-91
2022/07/01 11:21:35;;;;;;;;;;;35.70;25.80;;;;;;6282932;22;19945;-91
2022/07/01 11:24:00;;;;;;;;;;;35.30;25.60;;;;;;6256928;22;19915;-91
2022/07/01 11:26:25;;;;;;;;;;;35.00;25.80;;;;;;6309724;22;19910;-90
2022/07/01 11:28:51;;;;;;;;;;;34.70;25.80;;;;;;6282779;22;19918;-91
2022/07/01 11:31:26;;;;;;;;;;;34.30;25.80;;;;;;6282655;22;19934;-91
2022/07/01 11:33:55;;;;;;;;;;;33.90;26.10;;;;;;6282180;22;19907;-90
2022/07/01 11:39:22;;;;;;;;;;;33.30;26.90;;;;;;6308599;22;19930;-91
2022/07/01 11:44:51;;;;;;;;;;;32.70;27.60;;;;;;6310006;22;19955;-91
2022/07/01 11:47:27;;;;;;;;;;;32.40;28.10;;;;;;6311042;22;19937;-91
2022/07/01 11:49:52;;;;;;;;;;;32.30;28.50;;;;;;6281705;22;19911;-91
2022/07/01 11:52:25;;;;;;;;;;;32.20;28.90;;;;;;6311410;22;19922;-90
2022/07/01 11:54:51;;;;;;;;;;;32.30;28.90;;;;;;6283766;22;19910;-91
2022/07/01 11:57:34;;;;;;;;;;;32.40;28.90;;;;;;6283244;22;19919;-91
2022/07/01 12:00:35;;;;;;;;;;;32.60;28.90;;;;;;6312282;22;19907;-89
2022/07/01 12:09:35;;;;;;;;;;;32.90;28.60;;;;;;6160000;23;19969;-90
2022/07/01 12:12:00;;;;;;;;;;;32.80;28.80;;;;;;6260658;22;19951;-90
2022/07/01 12:20:08;;;;;;;;;;;32.80;28.50;;;;;;6217904;23;19920;-91
2022/07/01 12:22:33;;;;;;;;;;;32.80;28.60;;;;;;6194114;23;20037;-90
2022/07/01 12:25:10;;;;;;;;;;;32.70;28.20;;;;;;6194772;23;19908;-91
2022/07/01 12:27:38;;;;;;;;;;;32.50;27.70;;;;;;6193239;23;19916;-90
2022/07/01 12:30:05;;;;;;;;;;;32.30;28.00;;;;;;6194235;23;20667;-91
2022/07/01 12:32:43;;;;;;;;;;;32.20;28.30;;;;;;6194641;23;19911;-91
2022/07/01 12:37:55;;;;;;;;;;;32.10;28.70;;;;;;6228761;23;19927;-93
2022/07/01 12:40:27;;;;;;;;;;;32.20;28.60;;;;;;6205745;23;20226;-96
2022/07/01 12:42:54;;;;;;;;;;;32.30;28.50;;;;;;6230452;23;19955;-93
2022/07/01 12:45:23;;;;;;;;;;;32.60;28.40;;;;;;6226678;23;20257;-95
2022/07/01 12:47:53;;;;;;;;;;;32.90;28.00;;;;;;6199272;23;19936;-96
2022/07/01 12:50:26;;;;;;;;;;;33.40;27.70;;;;;;6197958;23;19896;-95
2022/07/01 12:52:58;;;;;;;;;;;33.90;27.00;;;;;;6199687;23;20273;-95
2022/07/01 12:55:26;;;;;;;;;;;34.50;26.20;;;;;;6197029;23;19916;-96
2022/07/01 12:58:10;;;;;;;;;;;34.90;25.40;;;;;;6166435;23;19967;-96
2022/07/01 13:00:40;;;;;;;;;;;35.30;24.70;;;;;;6165031;23;19983;-94
2022/07/01 13:03:08;;;;;;;;;;;35.50;24.70;;;;;;6183887;23;19967;-95
2022/07/01 13:05:34;;;;;;;;;;;35.50;24.50;;;;;;6194078;23;19914;-93
2022/07/01 13:08:00;;;;;;;;;;;35.50;24.20;;;;;;6194276;23;19915;-94
2022/07/01 13:10:25;;;;;;;;;;;35.90;24.00;;;;;;6193823;23;20310;-94
2022/07/01 13:12:57;;;;;;;;;;;36.20;23.60;;;;;;6219892;23;19920;-90
2022/07/01 13:15:26;;;;;;;;;;;36.30;23.80;;;;;;6195927;23;19935;-91
2022/07/01 13:17:51;;;;;;;;;;;36.40;23.60;;;;;;6187189;23;19927;-89
2022/07/01 13:20:18;;;;;;;;;;;36.50;23.70;;;;;;6188402;23;19908;-92
2022/07/01 13:22:44;;;;;;;;;;;36.70;23.90;;;;;;6187699;23;19916;-90
2022/07/01 13:25:12;;;;;;;;;;;37.30;23.30;;;;;;6189397;23;19943;-90
2022/07/01 13:27:38;;;;;;;;;;;37.70;22.30;;;;;;6185985;23;20322;-91
2022/07/01 13:30:04;;;;;;;;;;;37.80;22.20;;;;;;6187793;23;20223;-91
2022/07/01 13:32:30;;;;;;;;;;;37.60;22.40;;;;;;6187040;23;19912;-90
2022/07/01 13:34:55;;;;;;;;;;;37.30;22.40;;;;;;6186644;23;19916;-91
2022/07/01 13:37:21;;;;;;;;;;;36.90;22.50;;;;;;6188805;23;19921;-93
2022/07/01 13:39:50;;;;;;;;;;;36.60;22.70;;;;;;6188640;23;19915;-93
2022/07/01 13:42:15;;;;;;;;;;;36.40;23.00;;;;;;6188787;23;20333;-93
2022/07/01 13:44:44;;;;;;;;;;;36.30;23.30;;;;;;6188920;23;19908;-93
2022/07/01 13:47:11;;;;;;;;;;;36.20;23.10;;;;;;6188353;23;19963;-94
2022/07/01 13:49:37;;;;;;;;;;;35.80;23.10;;;;;;6188808;23;19908;-95
2022/07/01 13:52:03;;;;;;;;;;;35.60;23.20;;;;;;6192117;23;19912;-95
2022/07/01 13:54:28;;;;;;;;;;;35.60;23.50;;;;;;6192816;23;19943;-94
2022/07/01 13:56:54;;;;;;;;;;;35.60;23.40;;;;;;6165343;23;19912;-95
2022/07/01 13:59:21;;;;;;;;;;;35.40;23.40;;;;;;6187720;23;19904;-94
2022/07/01 14:01:47;;;;;;;;;;;35.30;23.50;;;;;;6188956;23;19908;-95
2022/07/01 14:04:13;;;;;;;;;;;35.20;23.60;;;;;;6189118;23;19919;-95
2022/07/01 14:06:39;;;;;;;;;;;35.30;23.60;;;;;;6164338;23;19916;-93
2022/07/01 14:09:04;;;;;;;;;;;35.50;23.60;;;;;;6185176;23;19932;-95
2022/07/01 14:11:30;;;;;;;;;;;35.90;23.20;;;;;;6188791;23;19912;-96
2022/07/01 14:13:58;;;;;;;;;;;36.20;22.90;;;;;;6189421;23;19940;-95
2022/07/01 14:16:24;;;;;;;;;;;36.00;22.70;;;;;;6189200;23;20348;-95
2022/07/01 14:18:50;;;;;;;;;;;35.80;22.80;;;;;;6191199;23;19920;-94
2022/07/01 14:21:21;;;;;;;;;;;35.60;23.00;;;;;;6190407;23;20313;-95
2022/07/01 14:23:46;;;;;;;;;;;35.30;23.10;;;;;;6190494;23;20246;-95
2022/07/01 14:26:12;;;;;;;;;;;35.00;23.10;;;;;;6189853;23;19923;-94
2022/07/01 14:28:40;;;;;;;;;;;34.70;23.20;;;;;;6190740;23;19926;-94
2022/07/01 14:31:09;;;;;;;;;;;34.70;23.60;;;;;;6189517;23;19911;-94
2022/07/01 14:33:35;;;;;;;;;;;34.90;23.60;;;;;;6193849;23;19958;-96
2022/07/01 14:36:00;;;;;;;;;;;35.20;23.50;;;;;;6189278;23;19912;-95
2022/07/01 14:38:26;;;;;;;;;;;35.20;23.30;;;;;;6191816;23;19944;-95
2022/07/01 14:40:52;;;;;;;;;;;35.20;23.30;;;;;;6192301;23;19896;-94
2022/07/01 14:43:18;;;;;;;;;;;35.00;23.40;;;;;;6192123;23;19916;-94
2022/07/01 14:45:44;;;;;;;;;;;34.90;23.10;;;;;;6187446;23;19908;-94
2022/07/01 14:48:10;;;;;;;;;;;34.50;23.20;;;;;;6190136;23;19928;-95
2022/07/01 14:50:35;;;;;;;;;;;34.20;23.30;;;;;;6189685;23;20218;-95
2022/07/01 14:53:01;;;;;;;;;;;33.90;23.70;;;;;;6191745;23;19913;-95
2022/07/01 14:55:30;;;;;;;;;;;33.60;23.90;;;;;;6190327;23;19912;-95
2022/07/01 14:57:57;;;;;;;;;;;33.40;24.30;;;;;;6182611;23;20351;-95
2022/07/01 15:00:25;;;;;;;;;;;33.20;24.70;;;;;;6188640;23;19936;-95
2022/07/01 15:02:51;;;;;;;;;;;33.00;25.00;;;;;;6190005;23;19991;-95
2022/07/01 15:05:21;;;;;;;;;;;32.90;25.20;;;;;;6164096;23;19919;-95
2022/07/01 15:07:47;;;;;;;;;;;33.00;25.20;;;;;;6180988;23;19916;-95
2022/07/01 15:10:13;;;;;;;;;;;33.00;25.20;;;;;;6188973;23;20257;-95
2022/07/01 15:12:38;;;;;;;;;;;33.00;25.00;;;;;;6190157;23;19913;-95
2022/07/01 15:15:16;;;;;;;;;;;33.00;24.90;;;;;;6191202;23;19983;-95
2022/07/01 15:17:45;;;;;;;;;;;33.00;25.10;;;;;;6192819;23;19911;-96
2022/07/01 15:20:11;;;;;;;;;;;32.90;24.90;;;;;;6192547;23;19961;-96
2022/07/01 15:22:37;;;;;;;;;;;32.90;24.90;;;;;;6186946;23;19905;-95
2022/07/01 15:25:06;;;;;;;;;;;32.80;24.70;;;;;;6194502;23;19943;-95
2022/07/01 15:27:33;;;;;;;;;;;32.80;24.40;;;;;;6172466;23;19919;-95
2022/07/01 15:29:59;;;;;;;;;;;32.70;24.50;;;;;;6192787;23;20008;-94
2022/07/01 15:32:25;;;;;;;;;;;32.70;24.30;;;;;;6191976;23;19983;-93
2022/07/01 15:34:51;;;;;;;;;;;32.60;24.30;;;;;;6191005;23;20230;-93
2022/07/01 15:39:53;;;;;;;;;;;32.40;24.10;;;;;;6270222;22;20324;-93
2022/07/01 15:42:18;;;;;;;;;;;32.40;24.30;;;;;;6254252;22;19918;-95
2022/07/01 15:44:44;;;;;;;;;;;32.40;24.40;;;;;;6254431;22;19907;-93
2022/07/01 16:04:00;;;;;;;;;;;31.70;24.80;;;;;;6291543;22;19937;-95
2022/07/01 16:06:27;;;;;;;;;;;31.50;24.80;;;;;;6264176;22;19914;-96
2022/07/01 16:08:56;;;;;;;;;;;31.40;24.70;;;;;;6261856;22;20299;-96
2022/07/01 16:11:24;;;;;;;;;;;31.30;24.70;;;;;;6261917;22;19923;-95
2022/07/01 16:13:54;;;;;;;;;;;31.20;24.80;;;;;;6260857;22;19911;-95
2022/07/01 16:16:30;;;;;;;;;;;31.20;25.00;;;;;;6259642;22;19907;-95
2022/07/01 16:19:01;;;;;;;;;;;31.20;25.20;;;;;;6261265;22;19922;-96
2022/07/01 16:21:28;;;;;;;;;;;31.20;25.30;;;;;;6235728;22;19911;-96
2022/07/01 16:23:57;;;;;;;;;;;31.10;25.30;;;;;;6258435;22;19907;-96
2022/07/01 16:32:49;;;;;;;;;;;30.80;25.60;;;;;;6223201;23;20359;-95
2022/07/01 16:35:17;;;;;;;;;;;30.70;25.80;;;;;;6230211;23;19910;-96
2022/07/01 16:37:46;;;;;;;;;;;30.70;25.90;;;;;;6234100;23;19916;-96
2022/07/01 16:40:18;;;;;;;;;;;30.70;26.00;;;;;;6235454;23;19908;-95
2022/07/01 16:42:48;;;;;;;;;;;30.60;26.00;;;;;;6234220;23;19908;-96
2022/07/01 16:45:14;;;;;;;;;;;30.40;25.90;;;;;;6235476;23;19903;-96
2022/07/01 16:47:41;;;;;;;;;;;30.30;25.90;;;;;;6231339;23;19962;-95
2022/07/01 16:50:08;;;;;;;;;;;30.20;26.10;;;;;;6228137;23;19911;-96
2022/07/01 16:52:38;;;;;;;;;;;30.20;26.20;;;;;;6201805;22;19988;-95
2022/07/01 16:55:08;;;;;;;;;;;30.10;26.30;;;;;;6226120;23;19948;-96
2022/07/01 16:57:38;;;;;;;;;;;29.90;26.40;;;;;;6230722;23;19915;-96
2022/07/01 17:00:04;;;;;;;;;;;29.80;26.60;;;;;;6258835;23;20232;-96
2022/07/01 17:02:30;;;;;;;;;;;29.70;26.70;;;;;;6232657;23;20194;-96
2022/07/01 17:04:56;;;;;;;;;;;29.60;26.90;;;;;;6227421;23;19919;-96
2022/07/01 17:07:22;;;;;;;;;;;29.40;27.00;;;;;;6225691;23;20328;-96
2022/07/01 17:09:49;;;;;;;;;;;29.30;27.20;;;;;;6203881;23;19942;-96
2022/07/01 17:12:14;;;;;;;;;;;29.30;27.30;;;;;;6227144;23;19907;-94
2022/07/01 17:14:43;;;;;;;;;;;29.20;27.40;;;;;;6225726;23;19912;-96
2022/07/01 17:17:09;;;;;;;;;;;29.10;27.50;;;;;;6225789;23;19958;-96
2022/07/01 17:19:34;;;;;;;;;;;29.00;27.60;;;;;;6223877;23;19912;-94
2022/07/01 17:22:01;;;;;;;;;;;29.00;27.70;;;;;;6223341;23;19916;-92
2022/07/01 17:24:27;;;;;;;;;;;28.90;27.80;;;;;;6224096;23;19912;-93
2022/07/01 17:27:11;;;;;;;;;;;28.80;27.70;;;;;;6198872;23;19908;-95
2022/07/01 17:29:38;;;;;;;;;;;28.80;27.80;;;;;;6225371;23;19935;-95
2022/07/01 17:32:06;;;;;;;;;;;28.70;27.90;;;;;;6225079;23;19896;-95
2022/07/01 17:34:43;;;;;;;;;;;28.70;28.00;;;;;;6225522;23;20688;-95
2022/07/01 17:37:09;;;;;;;;;;;28.60;28.10;;;;;;6225649;23;19990;-94
2022/07/01 17:39:36;;;;;;;;;;;28.50;28.10;;;;;;6218662;23;19931;-94
2022/07/01 17:42:02;;;;;;;;;;;28.40;28.10;;;;;;6220528;23;20387;-94
2022/07/01 17:44:36;;;;;;;;;;;28.40;28.20;;;;;;6199660;23;19908;-94
2022/07/01 17:47:12;;;;;;;;;;;28.30;28.20;;;;;;6201388;23;19961;-94
2022/07/01 17:49:39;;;;;;;;;;;28.30;28.30;;;;;;6224925;23;19911;-94
2022/07/01 17:52:05;;;;;;;;;;;28.20;28.30;;;;;;6224797;23;19918;-94
2022/07/01 17:54:30;;;;;;;;;;;28.20;28.40;;;;;;6226522;22;19916;-94
2022/07/01 17:56:56;;;;;;;;;;;28.20;28.50;;;;;;6226554;23;19919;-94
2022/07/01 17:59:35;;;;;;;;;;;28.20;28.50;;;;;;6230005;23;19960;-93
2022/07/01 18:02:03;;;;;;;;;;;28.20;28.50;;;;;;6227838;23;19911;-94
2022/07/01 18:04:29;;;;;;;;;;;28.10;28.50;;;;;;6223168;23;20346;-93
2022/07/01 18:06:56;;;;;;;;;;;28.00;28.60;;;;;;6251540;23;19963;-95
2022/07/01 18:09:22;;;;;;;;;;;28.00;28.70;;;;;;6233582;23;19904;-96
2022/07/01 18:14:55;;;;;;;;;;;27.80;28.80;;;;;;6253704;23;20324;-93
2022/07/01 18:17:33;;;;;;;;;;;27.70;28.90;;;;;;6222065;23;19962;-90
2022/07/01 18:20:11;;;;;;;;;;;27.70;28.80;;;;;;6222047;23;19907;-92